Aviation Digital Data Service (ADDS)

Output produced by METARs form (0845 UTC 23 May 2015)
found at http://www.aviationweather.gov/adds/metars/
 
KCMI 230536Z 2306/2406 09004KT P6SM OVC120 
     FM231700 17010KT P6SM SCT050 BKN120 
     FM240000 14005KT P6SM OVC080